createdAt,value
2019-01-12T00:00:12.408Z,25.60
2019-01-12T00:02:42.662Z,28.13
2019-01-12T00:05:12.900Z,30.80
2019-01-12T00:07:43.494Z,23.73
2019-01-12T00:10:13.704Z,30.17
2019-01-12T00:12:44.105Z,22.70
2019-01-12T00:15:14.474Z,22.20
2019-01-12T00:17:45.287Z,27.20
2019-01-12T00:20:15.738Z,25.40
2019-01-12T00:22:46.060Z,26.80
2019-01-12T00:25:16.333Z,25.27
2019-01-12T00:27:46.922Z,25.23
2019-01-12T00:30:17.577Z,21.50
2019-01-12T00:32:48.192Z,24.87
2019-01-12T00:35:18.459Z,25.33
2019-01-12T00:37:48.657Z,24.43
2019-01-12T00:40:19.475Z,25.53
2019-01-12T00:42:49.691Z,22.90
2019-01-12T00:45:20.339Z,23.60
2019-01-12T00:47:50.588Z,30.03
2019-01-12T00:50:21.019Z,27.30
2019-01-12T00:52:51.719Z,22.97
2019-01-12T00:55:21.966Z,24.23
2019-01-12T00:57:52.202Z,25.77
2019-01-12T01:00:23.275Z,27.03
2019-01-12T01:02:53.600Z,28.77
2019-01-12T01:05:23.830Z,26.77
2019-01-12T01:07:54.130Z,24.47
2019-01-12T01:10:24.473Z,29.00
2019-01-12T01:12:55.257Z,27.30
2019-01-12T01:15:25.706Z,28.23
2019-01-12T01:17:55.926Z,31.23
2019-01-12T01:20:26.171Z,29.73
2019-01-12T01:22:56.391Z,36.43
2019-01-12T01:25:26.664Z,31.67
2019-01-12T01:27:56.904Z,24.03
2019-01-12T01:30:27.123Z,23.53
2019-01-12T01:32:57.369Z,30.87
2019-01-12T01:35:27.545Z,27.53
2019-01-12T01:37:57.821Z,27.20
2019-01-12T01:40:28.090Z,26.17
2019-01-12T01:42:58.409Z,27.60
2019-01-12T01:45:28.595Z,26.93
2019-01-12T01:47:58.818Z,27.47
2019-01-12T01:50:29.014Z,27.80
2019-01-12T01:52:59.252Z,27.07
2019-01-12T01:55:29.536Z,25.60
2019-01-12T01:58:00.164Z,24.97
2019-01-12T02:00:30.402Z,28.80
2019-01-12T02:03:01.205Z,24.07
2019-01-12T02:05:31.457Z,27.43
2019-01-12T02:08:01.702Z,25.07
2019-01-12T02:10:31.847Z,21.93
2019-01-12T02:13:02.078Z,25.87
2019-01-12T02:15:32.586Z,26.00
2019-01-12T02:18:03.192Z,23.23
2019-01-12T02:20:33.430Z,21.40
2019-01-12T02:23:03.734Z,19.57
2019-01-12T02:25:34.290Z,22.43
2019-01-12T02:28:05.050Z,24.17
2019-01-12T02:30:35.262Z,22.00
2019-01-12T02:33:05.779Z,24.43
2019-01-12T02:35:36.116Z,23.87
2019-01-12T02:38:06.384Z,22.90
2019-01-12T02:40:36.987Z,25.77
2019-01-12T02:43:07.511Z,23.50
2019-01-12T02:45:38.076Z,26.53
2019-01-12T02:48:08.242Z,21.93
2019-01-12T02:50:38.478Z,22.43
2019-01-12T02:53:08.689Z,24.40
2019-01-12T02:55:39.323Z,22.10
2019-01-12T02:58:09.575Z,24.27
2019-01-12T03:00:39.779Z,24.60
2019-01-12T03:03:09.977Z,27.70
2019-01-12T03:05:40.171Z,25.47
2019-01-12T03:08:10.396Z,26.53
2019-01-12T03:10:40.607Z,26.03
2019-01-12T03:13:10.848Z,23.37
2019-01-12T03:15:41.089Z,26.23
2019-01-12T03:18:11.337Z,25.47
2019-01-12T03:20:41.562Z,21.23
2019-01-12T03:23:12.073Z,25.90
2019-01-12T03:25:42.547Z,25.33
2019-01-12T03:28:13.387Z,22.10
2019-01-12T03:30:43.680Z,21.50
2019-01-12T03:33:14.264Z,19.60
2019-01-12T03:35:44.463Z,15.40
2019-01-12T03:38:14.765Z,19.47
2019-01-12T03:40:45.319Z,16.30
2019-01-12T03:43:15.575Z,16.83
2019-01-12T03:45:46.084Z,14.80
2019-01-12T03:48:16.352Z,15.40
2019-01-12T03:50:46.584Z,16.27
2019-01-12T03:53:17.090Z,14.53
2019-01-12T03:55:47.364Z,15.87
2019-01-12T03:58:17.950Z,14.20
2019-01-12T04:00:48.854Z,13.60
2019-01-12T04:03:19.037Z,14.47
2019-01-12T04:05:49.662Z,16.23
2019-01-12T04:08:20.404Z,12.80
2019-01-12T04:10:50.940Z,15.60
2019-01-12T04:13:21.096Z,13.20
2019-01-12T04:15:51.740Z,12.67
2019-01-12T04:18:21.989Z,14.00
2019-01-12T04:20:52.209Z,14.07
2019-01-12T04:23:22.501Z,12.57
2019-01-12T04:25:55.556Z,13.63
2019-01-12T04:28:25.848Z,14.53
2019-01-12T04:30:56.050Z,12.77
2019-01-12T04:33:26.304Z,13.50
2019-01-12T04:35:56.974Z,13.17
2019-01-12T04:38:27.189Z,13.50
2019-01-12T04:40:57.872Z,14.40
2019-01-12T04:43:28.566Z,14.00
2019-01-12T04:45:58.875Z,13.87
2019-01-12T04:48:29.183Z,14.23
2019-01-12T04:50:59.395Z,12.33
2019-01-12T04:53:29.939Z,15.80
2019-01-12T04:56:00.613Z,13.70
2019-01-12T04:58:31.237Z,13.63
2019-01-12T05:01:01.490Z,13.40
2019-01-12T05:03:32.014Z,13.07
2019-01-12T05:06:02.252Z,15.20
2019-01-12T05:08:33.075Z,13.60
2019-01-12T05:11:03.584Z,14.73
2019-01-12T05:13:34.231Z,13.97
2019-01-12T05:16:04.518Z,14.73
2019-01-12T05:18:34.724Z,15.57
2019-01-12T05:21:04.945Z,19.07
2019-01-12T05:23:35.227Z,16.93
2019-01-12T05:26:05.772Z,16.23
2019-01-12T05:28:36.368Z,18.67
2019-01-12T05:31:06.634Z,17.80
2019-01-12T05:33:36.869Z,19.73
2019-01-12T05:36:07.012Z,19.80
2019-01-12T05:38:37.588Z,20.77
2019-01-12T05:41:07.755Z,22.23
2019-01-12T05:43:37.994Z,22.17
2019-01-12T05:46:08.151Z,24.70
2019-01-12T05:48:38.357Z,24.40
2019-01-12T05:51:08.972Z,25.03
2019-01-12T05:53:39.192Z,24.93
2019-01-12T05:56:09.473Z,29.43
2019-01-12T05:58:39.726Z,23.67
2019-01-12T06:01:10.277Z,25.10
2019-01-12T06:03:40.512Z,25.43
2019-01-12T06:06:10.759Z,25.03
2019-01-12T06:08:40.993Z,26.87
2019-01-12T06:11:11.518Z,25.20
2019-01-12T06:13:41.776Z,29.33
2019-01-12T06:16:12.333Z,26.33
2019-01-12T06:18:42.546Z,26.20
2019-01-12T06:21:13.090Z,26.43
2019-01-12T06:23:43.308Z,27.87
2019-01-12T06:26:13.550Z,27.90
2019-01-12T06:28:44.154Z,22.50
2019-01-12T06:31:14.651Z,24.43
2019-01-12T06:33:44.844Z,24.07
2019-01-12T06:36:15.077Z,21.47
2019-01-12T06:38:45.356Z,23.60
2019-01-12T06:41:15.544Z,26.93
2019-01-12T06:43:46.149Z,23.40
2019-01-12T06:46:16.454Z,23.17
2019-01-12T06:48:46.756Z,20.73
2019-01-12T06:51:17.052Z,22.30
2019-01-12T06:53:47.345Z,20.80
2019-01-12T06:56:17.528Z,22.10
2019-01-12T06:58:47.781Z,20.90
2019-01-12T07:01:18.334Z,21.50
2019-01-12T07:03:48.963Z,22.00
2019-01-12T07:06:19.925Z,19.50
2019-01-12T07:08:50.471Z,21.07
2019-01-12T07:11:20.666Z,18.07
2019-01-12T07:13:51.223Z,17.53
2019-01-12T07:16:21.894Z,18.07
2019-01-12T07:18:52.246Z,17.53
2019-01-12T07:21:22.423Z,17.27
2019-01-12T07:23:52.717Z,18.37
2019-01-12T07:26:23.276Z,16.53
2019-01-12T07:28:53.543Z,17.23
2019-01-12T07:31:24.303Z,15.80
2019-01-12T07:33:55.129Z,16.80
2019-01-12T07:36:25.467Z,17.47
2019-01-12T07:38:56.162Z,16.93
2019-01-12T07:41:26.530Z,14.27
2019-01-12T07:43:57.309Z,15.37
2019-01-12T07:46:28.117Z,15.47
2019-01-12T07:48:58.643Z,14.60
2019-01-12T07:51:28.931Z,12.87
2019-01-12T07:53:59.429Z,14.70
2019-01-12T07:56:30.191Z,13.37
2019-01-12T07:59:00.522Z,12.07
2019-01-12T08:01:30.847Z,14.50
2019-01-12T08:04:01.260Z,12.40
2019-01-12T08:06:31.752Z,13.10
2019-01-12T08:09:02.108Z,12.40
2019-01-12T08:11:32.551Z,10.03
2019-01-12T08:14:03.014Z,8.87
2019-01-12T08:16:33.778Z,10.80
2019-01-12T08:19:04.270Z,13.93
2019-01-12T08:21:37.087Z,8.30
2019-01-12T08:24:11.754Z,9.33
2019-01-12T08:26:42.190Z,9.97
2019-01-12T08:29:12.736Z,8.93
2019-01-12T08:31:43.033Z,10.00
2019-01-12T08:34:13.756Z,9.07
2019-01-12T08:36:44.064Z,8.60
2019-01-12T08:39:14.920Z,8.63
2019-01-12T08:41:45.166Z,9.33
2019-01-12T08:44:15.500Z,10.77
2019-01-12T08:46:45.934Z,7.90
2019-01-12T08:49:18.346Z,8.13
2019-01-12T08:51:48.758Z,6.37
2019-01-12T08:54:20.047Z,7.57
2019-01-12T08:56:50.591Z,6.97
2019-01-12T08:59:25.554Z,7.27
2019-01-12T09:01:55.833Z,7.73
2019-01-12T09:04:26.992Z,8.53
2019-01-12T09:06:59.626Z,8.80
2019-01-12T09:09:30.296Z,6.80
2019-01-12T09:12:00.747Z,9.87
2019-01-12T09:14:31.296Z,7.80
2019-01-12T09:17:01.683Z,7.80
2019-01-12T09:19:32.052Z,6.87
2019-01-12T09:22:02.544Z,7.27
2019-01-12T09:24:33.041Z,6.33
2019-01-12T09:27:03.729Z,7.30
2019-01-12T09:29:34.014Z,8.60
2019-01-12T09:32:06.382Z,6.60
2019-01-12T09:34:43.473Z,8.73
2019-01-12T09:37:15.771Z,7.13
2019-01-12T09:39:46.143Z,6.23
2019-01-12T09:42:18.647Z,6.20
2019-01-12T09:44:48.981Z,6.80
2019-01-12T09:47:19.672Z,5.70
2019-01-12T09:49:50.199Z,7.23
2019-01-12T09:52:20.522Z,7.07
2019-01-12T09:54:51.177Z,7.30
2019-01-12T09:57:21.512Z,7.97
2019-01-12T09:59:51.916Z,7.90
2019-01-12T10:02:26.908Z,7.53
2019-01-12T10:04:57.902Z,7.27
2019-01-12T10:07:34.327Z,9.60
2019-01-12T10:10:06.529Z,6.37
2019-01-12T10:12:36.995Z,6.07
2019-01-12T10:15:07.883Z,5.33
2019-01-12T10:17:38.262Z,5.40
2019-01-12T10:20:11.494Z,4.30
2019-01-12T10:22:42.538Z,6.20
2019-01-12T10:25:13.027Z,5.50
2019-01-12T10:27:43.384Z,3.63
2019-01-12T10:30:19.128Z,6.27
2019-01-12T10:32:50.250Z,6.23
2019-01-12T10:35:21.260Z,6.70
2019-01-12T10:37:51.889Z,5.77
2019-01-12T10:40:22.510Z,5.73
2019-01-12T10:43:02.758Z,6.27
2019-01-12T10:45:33.096Z,6.07
2019-01-12T10:48:03.854Z,6.30
2019-01-12T10:50:42.601Z,7.03
2019-01-12T10:53:14.128Z,9.00
2019-01-12T10:55:44.526Z,7.03
2019-01-12T10:58:15.464Z,6.67
2019-01-12T11:00:45.714Z,6.80
2019-01-12T11:03:16.509Z,6.50
2019-01-12T11:05:46.922Z,7.83
2019-01-12T11:08:17.574Z,7.17
2019-01-12T11:10:49.854Z,7.43
2019-01-12T11:13:23.577Z,7.23
2019-01-12T11:15:55.178Z,8.60
2019-01-12T11:18:25.561Z,6.80
2019-01-12T11:20:56.522Z,9.33
2019-01-12T11:23:26.941Z,9.17
2019-01-12T11:25:57.290Z,5.10
2019-01-12T11:28:29.049Z,8.43
2019-01-12T11:31:00.270Z,5.87
2019-01-12T11:33:30.933Z,7.63
2019-01-12T11:36:01.539Z,9.27
2019-01-12T11:38:31.889Z,8.17
2019-01-12T11:41:02.389Z,9.60
2019-01-12T11:43:32.915Z,8.93
2019-01-12T11:46:03.331Z,9.87
2019-01-12T11:48:34.041Z,7.50
2019-01-12T11:51:13.675Z,10.13
2019-01-12T11:53:44.084Z,9.17
2019-01-12T11:56:15.064Z,8.17
2019-01-12T11:58:45.423Z,7.30
2019-01-12T12:01:16.033Z,8.10
2019-01-12T12:03:46.361Z,7.53
2019-01-12T12:06:17.383Z,11.10
2019-01-12T12:08:48.193Z,10.10
2019-01-12T12:11:18.929Z,9.73
2019-01-12T12:13:49.217Z,10.60
2019-01-12T12:16:20.793Z,7.40
2019-01-12T12:18:51.223Z,10.70
2019-01-12T12:21:21.719Z,8.73
2019-01-12T12:23:52.288Z,7.03
2019-01-12T12:26:22.972Z,10.60
2019-01-12T12:28:53.658Z,9.30
2019-01-12T12:31:25.131Z,10.23
2019-01-12T12:33:57.961Z,11.03
2019-01-12T12:36:28.511Z,10.13
2019-01-12T12:38:59.107Z,9.30
2019-01-12T12:41:31.455Z,9.07
2019-01-12T12:44:02.087Z,10.00
2019-01-12T12:46:32.843Z,8.10
2019-01-12T12:49:03.310Z,8.43
2019-01-12T12:51:33.922Z,7.97
2019-01-12T12:54:04.403Z,9.03
2019-01-12T12:56:35.057Z,10.87
2019-01-12T12:59:05.566Z,9.33
2019-01-12T13:01:35.927Z,12.60
2019-01-12T13:04:06.715Z,12.67
2019-01-12T13:06:37.551Z,9.37
2019-01-12T13:09:09.302Z,9.93
2019-01-12T13:11:39.754Z,8.83
2019-01-12T13:14:11.346Z,8.63
2019-01-12T13:16:42.142Z,12.20
2019-01-12T13:19:12.941Z,11.37
2019-01-12T13:21:43.352Z,12.67
2019-01-12T13:24:14.124Z,11.73
2019-01-12T13:26:45.001Z,12.10
2019-01-12T13:29:15.670Z,12.03
2019-01-12T13:31:46.142Z,13.27
2019-01-12T13:34:16.476Z,10.67
2019-01-12T13:36:47.099Z,9.27
2019-01-12T13:39:17.819Z,12.77
2019-01-12T13:41:48.529Z,12.23
2019-01-12T13:44:18.987Z,11.83
2019-01-12T13:46:49.382Z,9.47
2019-01-12T13:49:19.871Z,12.23
2019-01-12T13:51:50.160Z,13.37
2019-01-12T13:54:20.629Z,8.50
2019-01-12T13:56:51.047Z,10.83
2019-01-12T13:59:21.372Z,10.57
2019-01-12T14:01:51.776Z,10.67
2019-01-12T14:04:28.610Z,13.63
2019-01-12T14:07:00.815Z,9.23
2019-01-12T14:09:31.599Z,11.40
2019-01-12T14:12:02.280Z,14.33
2019-01-12T14:14:32.718Z,9.63
2019-01-12T14:17:06.159Z,10.03
2019-01-12T14:19:36.575Z,12.63
2019-01-12T14:22:07.725Z,13.97
2019-01-12T14:24:38.241Z,16.60
2019-01-12T14:27:08.728Z,14.17
2019-01-12T14:29:39.630Z,15.53
2019-01-12T14:32:10.754Z,11.97
2019-01-12T14:34:41.145Z,10.60
2019-01-12T14:37:11.509Z,12.60
2019-01-12T14:39:42.183Z,13.87
2019-01-12T14:42:12.520Z,11.60
2019-01-12T14:44:42.898Z,17.00
2019-01-12T14:47:13.631Z,15.57
2019-01-12T14:49:48.070Z,12.70
2019-01-12T14:52:18.705Z,14.83
2019-01-12T14:54:50.946Z,13.17
2019-01-12T14:57:26.146Z,13.50
2019-01-12T14:59:56.565Z,12.33
2019-01-12T15:02:26.980Z,12.50
2019-01-12T15:04:57.608Z,13.10
2019-01-12T15:07:28.304Z,14.10
2019-01-12T15:09:58.861Z,12.73
2019-01-12T15:12:29.530Z,15.03
2019-01-12T15:15:00.255Z,13.10
2019-01-12T15:17:31.100Z,11.73
2019-01-12T15:20:01.518Z,12.63
2019-01-12T15:22:32.426Z,16.47
2019-01-12T15:25:02.728Z,13.40
2019-01-12T15:27:33.030Z,14.47
2019-01-12T15:30:03.845Z,15.77
2019-01-12T15:32:34.316Z,15.23
2019-01-12T15:35:05.210Z,16.00
2019-01-12T15:37:36.089Z,12.83
2019-01-12T15:40:07.866Z,16.40
2019-01-12T15:42:38.184Z,15.67
2019-01-12T15:45:11.470Z,13.37
2019-01-12T15:47:41.766Z,11.83
2019-01-12T15:50:15.393Z,10.43
2019-01-12T15:52:45.820Z,9.03
2019-01-12T15:55:16.252Z,12.63
2019-01-12T15:57:46.539Z,14.40
2019-01-12T16:00:21.757Z,13.10
2019-01-12T16:02:52.154Z,13.07
2019-01-12T16:05:22.477Z,11.67
2019-01-12T16:07:53.025Z,10.43
2019-01-12T16:10:23.874Z,12.13
2019-01-12T16:12:55.049Z,13.15
2019-01-12T16:15:26.872Z,11.10
2019-01-12T16:17:58.543Z,9.93
2019-01-12T16:20:32.162Z,10.97
2019-01-12T16:23:02.487Z,9.50
2019-01-12T16:25:33.115Z,10.47
2019-01-12T16:28:03.366Z,10.43
2019-01-12T16:30:33.615Z,10.63
2019-01-12T16:33:03.983Z,9.37
2019-01-12T16:35:34.366Z,11.17
2019-01-12T16:38:05.430Z,9.27
2019-01-12T16:40:36.213Z,8.87
2019-01-12T16:43:06.491Z,7.07
2019-01-12T16:45:36.763Z,11.60
2019-01-12T16:48:07.587Z,10.10
2019-01-12T16:50:37.994Z,8.87
2019-01-12T16:53:08.203Z,11.17
2019-01-12T16:55:38.327Z,8.83
2019-01-12T16:58:08.542Z,8.20
2019-01-12T17:00:38.791Z,10.90
2019-01-12T17:03:09.384Z,8.53
2019-01-12T17:05:40.116Z,7.80
2019-01-12T17:08:10.792Z,13.93
2019-01-12T17:10:41.071Z,12.20
2019-01-12T17:13:11.572Z,10.60
2019-01-12T17:15:42.092Z,9.07
2019-01-12T17:18:12.640Z,8.73
2019-01-12T17:20:42.861Z,8.60
2019-01-12T17:23:13.107Z,13.00
2019-01-12T17:25:43.385Z,8.83
2019-01-12T17:28:13.743Z,10.80
2019-01-12T17:30:44.056Z,12.10
2019-01-12T17:33:14.214Z,9.47
2019-01-12T17:35:44.417Z,7.60
2019-01-12T17:38:15.075Z,10.80
2019-01-12T17:40:45.259Z,9.67
2019-01-12T17:43:15.625Z,6.70
2019-01-12T17:45:47.091Z,7.60
2019-01-12T17:48:17.314Z,8.10
2019-01-12T17:50:47.538Z,8.43
2019-01-12T17:53:18.223Z,8.40
2019-01-12T17:55:48.521Z,10.00
2019-01-12T17:58:19.057Z,9.97
2019-01-12T18:00:53.584Z,5.77
2019-01-12T18:03:23.921Z,9.03
2019-01-12T18:05:54.463Z,7.03
2019-01-12T18:08:24.744Z,6.07
2019-01-12T18:10:55.291Z,6.70
2019-01-12T18:13:25.885Z,7.33
2019-01-12T18:15:56.073Z,8.90
2019-01-12T18:18:26.583Z,6.93
2019-01-12T18:20:56.815Z,6.70
2019-01-12T18:23:27.177Z,12.63
2019-01-12T18:25:57.610Z,7.63
2019-01-12T18:28:28.579Z,4.93
2019-01-12T18:30:58.737Z,7.13
2019-01-12T18:33:29.622Z,4.67
2019-01-12T18:35:59.883Z,6.47
2019-01-12T18:38:30.002Z,6.77
2019-01-12T18:41:00.543Z,5.23
2019-01-12T18:43:30.983Z,7.80
2019-01-12T18:46:01.263Z,8.33
2019-01-12T18:48:31.773Z,7.83
2019-01-12T18:51:02.043Z,6.67
2019-01-12T18:53:32.281Z,7.97
2019-01-12T18:56:02.573Z,8.53
2019-01-12T18:58:32.749Z,6.40
2019-01-12T19:01:03.695Z,9.10
2019-01-12T19:03:33.997Z,6.47
2019-01-12T19:06:04.203Z,9.53
2019-01-12T19:08:34.438Z,8.13
2019-01-12T19:11:04.938Z,7.73
2019-01-12T19:13:35.599Z,8.37
2019-01-12T19:16:06.236Z,9.20
2019-01-12T19:18:36.848Z,5.73
2019-01-12T19:21:07.650Z,6.67
2019-01-12T19:23:37.864Z,7.00
2019-01-12T19:26:08.442Z,5.47
2019-01-12T19:28:38.621Z,6.80
2019-01-12T19:31:08.930Z,9.07
2019-01-12T19:33:39.573Z,5.57
2019-01-12T19:36:09.771Z,7.73
2019-01-12T19:38:39.874Z,6.27
2019-01-12T19:41:10.490Z,5.57
2019-01-12T19:43:40.664Z,9.30
2019-01-12T19:46:11.232Z,4.07
2019-01-12T19:48:41.462Z,6.50
2019-01-12T19:51:11.640Z,7.50
2019-01-12T19:53:42.284Z,8.20
2019-01-12T19:56:12.577Z,4.23
2019-01-12T19:58:42.826Z,5.93
2019-01-12T20:01:13.155Z,7.87
2019-01-12T20:03:43.626Z,5.33
2019-01-12T20:06:17.145Z,7.37
2019-01-12T20:08:46.009Z,4.40
2019-01-12T20:11:16.407Z,5.87
2019-01-12T20:13:46.922Z,6.47
2019-01-12T20:16:17.790Z,5.03
2019-01-12T20:18:48.374Z,6.63
2019-01-12T20:21:18.596Z,8.27
2019-01-12T20:23:48.876Z,12.73
2019-01-12T20:26:19.047Z,6.80
2019-01-12T20:28:49.516Z,12.10
2019-01-12T20:31:51.317Z,8.80
2019-01-12T20:34:44.036Z,8.20
2019-01-12T20:38:04.307Z,8.77
2019-01-12T20:40:49.741Z,9.63
2019-01-12T20:43:55.719Z,7.77
2019-01-12T20:46:40.951Z,7.90
2019-01-12T20:49:37.155Z,10.20
2019-01-12T20:53:03.271Z,8.90
2019-01-12T20:56:30.000Z,6.73
2019-01-12T20:59:29.268Z,12.73
2019-01-12T21:02:25.821Z,7.40
2019-01-12T21:05:42.838Z,10.33
2019-01-12T21:08:41.099Z,7.37
2019-01-12T21:11:52.652Z,7.13
2019-01-12T21:14:46.258Z,7.50
2019-01-12T21:17:17.853Z,8.87
2019-01-12T21:19:48.594Z,6.73
2019-01-12T21:22:18.741Z,10.10
2019-01-12T21:24:48.981Z,7.73
2019-01-12T21:27:19.288Z,7.87
2019-01-12T21:29:50.012Z,9.63
2019-01-12T21:32:20.216Z,8.93
2019-01-12T21:34:50.509Z,8.80
2019-01-12T21:37:20.789Z,7.00
2019-01-12T21:39:50.970Z,7.53
2019-01-12T21:42:21.211Z,8.67
2019-01-12T21:44:51.410Z,8.20
2019-01-12T21:47:21.563Z,7.43
2019-01-12T21:49:52.230Z,11.03
2019-01-12T21:52:22.922Z,8.93
2019-01-12T21:54:53.388Z,9.43
2019-01-12T21:57:23.616Z,11.07
2019-01-12T21:59:54.140Z,8.87
2019-01-12T22:02:25.294Z,11.93
2019-01-12T22:04:55.528Z,9.23
2019-01-12T22:07:25.710Z,8.57
2019-01-12T22:09:55.968Z,8.77
2019-01-12T22:12:26.536Z,11.53
2019-01-12T22:14:56.755Z,4.87
2019-01-12T22:17:26.963Z,9.13
2019-01-12T22:19:57.784Z,7.33
2019-01-12T22:22:28.685Z,10.07
2019-01-12T22:24:59.185Z,8.23
2019-01-12T22:27:29.339Z,6.57
2019-01-12T22:29:59.943Z,8.47
2019-01-12T22:32:30.216Z,11.80
2019-01-12T22:35:00.504Z,7.90
2019-01-12T22:37:31.017Z,7.03
2019-01-12T22:40:01.504Z,6.87
2019-01-12T22:42:31.711Z,5.73
2019-01-12T22:45:01.881Z,12.37
2019-01-12T22:47:32.066Z,8.40
2019-01-12T22:50:02.213Z,11.00
2019-01-12T22:52:32.818Z,8.70
2019-01-12T22:55:03.355Z,10.53
2019-01-12T22:57:33.798Z,8.33
2019-01-12T23:00:06.223Z,8.97
2019-01-12T23:02:36.507Z,7.47
2019-01-12T23:05:07.176Z,10.70
2019-01-12T23:07:37.413Z,10.50
2019-01-12T23:10:08.334Z,15.07
2019-01-12T23:12:38.571Z,10.57
2019-01-12T23:15:09.199Z,12.37
2019-01-12T23:17:39.363Z,10.63
2019-01-12T23:20:10.142Z,12.43
2019-01-12T23:22:40.375Z,10.17
2019-01-12T23:25:10.793Z,9.77
2019-01-12T23:27:41.041Z,8.63
2019-01-12T23:30:12.472Z,10.33
2019-01-12T23:32:43.023Z,13.53
2019-01-12T23:35:13.237Z,12.00
2019-01-12T23:37:43.874Z,11.97
2019-01-12T23:40:15.138Z,12.33
2019-01-12T23:42:45.357Z,14.83
2019-01-12T23:45:15.916Z,13.03
2019-01-12T23:47:46.139Z,15.23
2019-01-12T23:50:16.332Z,12.20
2019-01-12T23:52:46.950Z,12.67
2019-01-12T23:55:17.214Z,19.23
2019-01-12T23:57:47.339Z,13.60
